sensor_id;sensor_type;location;lat;lon;timestamp;P1;durP1;ratioP1;P2;durP2;ratioP2
74543;SDS011;63016;55.030;38.710;2023-12-22T00:00:35;12.40;;;5.95;;
74543;SDS011;63016;55.030;38.710;2023-12-22T00:03:01;12.73;;;6.80;;
74543;SDS011;63016;55.030;38.710;2023-12-22T00:05:26;14.05;;;6.45;;
74543;SDS011;63016;55.030;38.710;2023-12-22T00:07:52;13.82;;;6.78;;
74543;SDS011;63016;55.030;38.710;2023-12-22T00:10:17;13.25;;;6.10;;
74543;SDS011;63016;55.030;38.710;2023-12-22T00:12:43;16.38;;;7.10;;
74543;SDS011;63016;55.030;38.710;2023-12-22T00:15:08;16.08;;;6.50;;
74543;SDS011;63016;55.030;38.710;2023-12-22T00:17:34;12.40;;;6.40;;
74543;SDS011;63016;55.030;38.710;2023-12-22T00:19:59;14.13;;;6.90;;
74543;SDS011;63016;55.030;38.710;2023-12-22T00:22:28;14.93;;;6.22;;
74543;SDS011;63016;55.030;38.710;2023-12-22T00:24:54;13.23;;;6.18;;
74543;SDS011;63016;55.030;38.710;2023-12-22T00:27:20;16.75;;;5.95;;
74543;SDS011;63016;55.030;38.710;2023-12-22T00:29:45;13.85;;;6.60;;
74543;SDS011;63016;55.030;38.710;2023-12-22T00:32:11;15.73;;;6.65;;
74543;SDS011;63016;55.030;38.710;2023-12-22T00:34:37;16.40;;;7.00;;
74543;SDS011;63016;55.030;38.710;2023-12-22T00:37:02;14.10;;;6.40;;
74543;SDS011;63016;55.030;38.710;2023-12-22T00:39:29;12.30;;;6.20;;
74543;SDS011;63016;55.030;38.710;2023-12-22T00:41:55;14.60;;;6.90;;
74543;SDS011;63016;55.030;38.710;2023-12-22T00:44:21;15.63;;;7.03;;
74543;SDS011;63016;55.030;38.710;2023-12-22T00:46:46;15.13;;;7.35;;
74543;SDS011;63016;55.030;38.710;2023-12-22T00:49:12;15.82;;;7.35;;
74543;SDS011;63016;55.030;38.710;2023-12-22T00:51:37;14.32;;;7.00;;
74543;SDS011;63016;55.030;38.710;2023-12-22T00:54:03;14.20;;;6.72;;
74543;SDS011;63016;55.030;38.710;2023-12-22T00:56:28;15.10;;;7.22;;
74543;SDS011;63016;55.030;38.710;2023-12-22T00:58:53;17.00;;;7.20;;
74543;SDS011;63016;55.030;38.710;2023-12-22T01:01:19;15.73;;;7.53;;
74543;SDS011;63016;55.030;38.710;2023-12-22T01:03:46;16.23;;;6.95;;
74543;SDS011;63016;55.030;38.710;2023-12-22T01:06:11;14.98;;;7.18;;
74543;SDS011;63016;55.030;38.710;2023-12-22T01:08:37;15.63;;;6.95;;
74543;SDS011;63016;55.030;38.710;2023-12-22T01:11:03;16.58;;;7.55;;
74543;SDS011;63016;55.030;38.710;2023-12-22T01:13:28;16.58;;;7.90;;
74543;SDS011;63016;55.030;38.710;2023-12-22T01:15:54;15.88;;;7.43;;
74543;SDS011;63016;55.030;38.710;2023-12-22T01:18:19;16.75;;;7.05;;
74543;SDS011;63016;55.030;38.710;2023-12-22T01:20:45;15.60;;;7.65;;
74543;SDS011;63016;55.030;38.710;2023-12-22T01:23:10;16.38;;;7.38;;
74543;SDS011;63016;55.030;38.710;2023-12-22T01:25:36;16.38;;;7.10;;
74543;SDS011;63016;55.030;38.710;2023-12-22T01:28:01;17.35;;;7.47;;
74543;SDS011;63016;55.030;38.710;2023-12-22T01:30:27;17.13;;;7.95;;
74543;SDS011;63016;55.030;38.710;2023-12-22T01:32:52;19.35;;;8.05;;
74543;SDS011;63016;55.030;38.710;2023-12-22T01:35:18;16.35;;;7.85;;
74543;SDS011;63016;55.030;38.710;2023-12-22T01:37:43;15.95;;;7.15;;
74543;SDS011;63016;55.030;38.710;2023-12-22T01:40:09;15.15;;;7.40;;
74543;SDS011;63016;55.030;38.710;2023-12-22T01:42:35;17.52;;;7.80;;
74543;SDS011;63016;55.030;38.710;2023-12-22T01:45:00;16.25;;;7.22;;
74543;SDS011;63016;55.030;38.710;2023-12-22T01:47:26;16.20;;;7.30;;
74543;SDS011;63016;55.030;38.710;2023-12-22T01:49:52;19.08;;;7.75;;
74543;SDS011;63016;55.030;38.710;2023-12-22T01:52:18;18.42;;;7.65;;
74543;SDS011;63016;55.030;38.710;2023-12-22T01:54:44;18.58;;;7.45;;
74543;SDS011;63016;55.030;38.710;2023-12-22T01:57:09;21.88;;;8.55;;
74543;SDS011;63016;55.030;38.710;2023-12-22T01:59:38;16.58;;;7.50;;
74543;SDS011;63016;55.030;38.710;2023-12-22T02:02:04;18.45;;;7.80;;
74543;SDS011;63016;55.030;38.710;2023-12-22T02:04:30;18.20;;;8.20;;
74543;SDS011;63016;55.030;38.710;2023-12-22T02:06:57;19.92;;;8.40;;
74543;SDS011;63016;55.030;38.710;2023-12-22T02:09:26;18.85;;;7.57;;
74543;SDS011;63016;55.030;38.710;2023-12-22T02:11:51;19.58;;;8.30;;
74543;SDS011;63016;55.030;38.710;2023-12-22T02:14:16;17.92;;;7.68;;
74543;SDS011;63016;55.030;38.710;2023-12-22T02:16:44;18.58;;;8.30;;
74543;SDS011;63016;55.030;38.710;2023-12-22T02:22:06;19.10;;;8.05;;
74543;SDS011;63016;55.030;38.710;2023-12-22T02:24:33;20.38;;;7.70;;
74543;SDS011;63016;55.030;38.710;2023-12-22T02:29:35;17.85;;;7.90;;
74543;SDS011;63016;55.030;38.710;2023-12-22T02:32:05;17.98;;;7.53;;
74543;SDS011;63016;55.030;38.710;2023-12-22T02:34:34;16.23;;;7.85;;
74543;SDS011;63016;55.030;38.710;2023-12-22T02:37:04;23.90;;;9.00;;
74543;SDS011;63016;55.030;38.710;2023-12-22T02:39:32;17.92;;;7.97;;
74543;SDS011;63016;55.030;38.710;2023-12-22T02:41:58;17.45;;;8.55;;
74543;SDS011;63016;55.030;38.710;2023-12-22T02:44:25;18.73;;;8.57;;
74543;SDS011;63016;55.030;38.710;2023-12-22T02:46:51;19.65;;;8.20;;
74543;SDS011;63016;55.030;38.710;2023-12-22T02:49:16;20.45;;;8.77;;
74543;SDS011;63016;55.030;38.710;2023-12-22T02:51:43;19.23;;;8.77;;
74543;SDS011;63016;55.030;38.710;2023-12-22T02:54:09;17.48;;;8.02;;
74543;SDS011;63016;55.030;38.710;2023-12-22T02:56:35;19.33;;;8.50;;
74543;SDS011;63016;55.030;38.710;2023-12-22T02:59:00;18.13;;;8.18;;
74543;SDS011;63016;55.030;38.710;2023-12-22T03:01:26;18.92;;;8.32;;
74543;SDS011;63016;55.030;38.710;2023-12-22T03:03:51;17.58;;;7.57;;
74543;SDS011;63016;55.030;38.710;2023-12-22T03:06:17;17.63;;;8.15;;
74543;SDS011;63016;55.030;38.710;2023-12-22T03:08:42;18.17;;;8.10;;
74543;SDS011;63016;55.030;38.710;2023-12-22T03:11:08;18.92;;;8.48;;
74543;SDS011;63016;55.030;38.710;2023-12-22T03:13:33;17.08;;;7.90;;
74543;SDS011;63016;55.030;38.710;2023-12-22T03:15:59;16.90;;;7.93;;
74543;SDS011;63016;55.030;38.710;2023-12-22T03:18:24;23.48;;;9.60;;
74543;SDS011;63016;55.030;38.710;2023-12-22T03:20:49;20.10;;;8.50;;
74543;SDS011;63016;55.030;38.710;2023-12-22T03:23:15;20.00;;;8.77;;
74543;SDS011;63016;55.030;38.710;2023-12-22T03:25:41;21.40;;;9.25;;
74543;SDS011;63016;55.030;38.710;2023-12-22T03:28:07;17.63;;;8.13;;
74543;SDS011;63016;55.030;38.710;2023-12-22T03:30:33;21.05;;;8.80;;
74543;SDS011;63016;55.030;38.710;2023-12-22T03:33:00;19.52;;;8.77;;
74543;SDS011;63016;55.030;38.710;2023-12-22T03:35:26;23.20;;;9.30;;
74543;SDS011;63016;55.030;38.710;2023-12-22T03:37:51;21.45;;;8.82;;
74543;SDS011;63016;55.030;38.710;2023-12-22T03:40:17;20.10;;;8.40;;
74543;SDS011;63016;55.030;38.710;2023-12-22T03:42:43;18.20;;;8.55;;
74543;SDS011;63016;55.030;38.710;2023-12-22T03:45:08;17.65;;;8.43;;
74543;SDS011;63016;55.030;38.710;2023-12-22T03:47:34;20.63;;;8.93;;
74543;SDS011;63016;55.030;38.710;2023-12-22T03:49:59;18.02;;;8.32;;
74543;SDS011;63016;55.030;38.710;2023-12-22T03:52:25;22.40;;;8.30;;
74543;SDS011;63016;55.030;38.710;2023-12-22T03:54:50;15.25;;;7.15;;
74543;SDS011;63016;55.030;38.710;2023-12-22T03:57:15;19.63;;;8.68;;
74543;SDS011;63016;55.030;38.710;2023-12-22T03:59:41;18.42;;;8.60;;
74543;SDS011;63016;55.030;38.710;2023-12-22T04:02:08;19.05;;;8.60;;
74543;SDS011;63016;55.030;38.710;2023-12-22T04:04:37;21.38;;;8.38;;
74543;SDS011;63016;55.030;38.710;2023-12-22T04:07:03;17.58;;;8.10;;
74543;SDS011;63016;55.030;38.710;2023-12-22T04:09:28;17.38;;;8.05;;
74543;SDS011;63016;55.030;38.710;2023-12-22T04:11:54;18.52;;;7.95;;
74543;SDS011;63016;55.030;38.710;2023-12-22T04:14:19;17.75;;;8.20;;
74543;SDS011;63016;55.030;38.710;2023-12-22T04:16:45;16.92;;;8.07;;
74543;SDS011;63016;55.030;38.710;2023-12-22T04:19:10;18.88;;;8.55;;
74543;SDS011;63016;55.030;38.710;2023-12-22T04:21:36;17.20;;;7.28;;
74543;SDS011;63016;55.030;38.710;2023-12-22T04:24:01;18.45;;;8.85;;
74543;SDS011;63016;55.030;38.710;2023-12-22T04:26:27;18.38;;;8.30;;
74543;SDS011;63016;55.030;38.710;2023-12-22T04:28:53;17.67;;;7.78;;
74543;SDS011;63016;55.030;38.710;2023-12-22T04:31:18;16.23;;;8.38;;
74543;SDS011;63016;55.030;38.710;2023-12-22T04:33:44;15.77;;;6.93;;
74543;SDS011;63016;55.030;38.710;2023-12-22T04:36:09;19.50;;;8.23;;
74543;SDS011;63016;55.030;38.710;2023-12-22T04:38:35;18.30;;;7.68;;
74543;SDS011;63016;55.030;38.710;2023-12-22T04:41:00;16.70;;;7.45;;
74543;SDS011;63016;55.030;38.710;2023-12-22T04:43:26;17.35;;;7.93;;
74543;SDS011;63016;55.030;38.710;2023-12-22T04:45:51;20.27;;;8.02;;
74543;SDS011;63016;55.030;38.710;2023-12-22T04:48:16;17.05;;;6.95;;
74543;SDS011;63016;55.030;38.710;2023-12-22T04:50:42;17.55;;;7.80;;
74543;SDS011;63016;55.030;38.710;2023-12-22T04:53:07;17.08;;;8.05;;
74543;SDS011;63016;55.030;38.710;2023-12-22T04:55:33;14.40;;;6.90;;
74543;SDS011;63016;55.030;38.710;2023-12-22T04:57:58;15.07;;;6.57;;
74543;SDS011;63016;55.030;38.710;2023-12-22T05:00:25;16.63;;;7.43;;
74543;SDS011;63016;55.030;38.710;2023-12-22T05:02:51;15.50;;;7.40;;
74543;SDS011;63016;55.030;38.710;2023-12-22T05:05:17;15.85;;;7.32;;
74543;SDS011;63016;55.030;38.710;2023-12-22T05:07:42;15.00;;;7.03;;
74543;SDS011;63016;55.030;38.710;2023-12-22T05:10:08;16.75;;;7.28;;
74543;SDS011;63016;55.030;38.710;2023-12-22T05:12:33;17.95;;;7.78;;
74543;SDS011;63016;55.030;38.710;2023-12-22T05:14:59;17.33;;;7.63;;
74543;SDS011;63016;55.030;38.710;2023-12-22T05:17:25;18.23;;;8.15;;
74543;SDS011;63016;55.030;38.710;2023-12-22T05:19:50;16.15;;;7.43;;
74543;SDS011;63016;55.030;38.710;2023-12-22T05:22:16;17.27;;;8.52;;
74543;SDS011;63016;55.030;38.710;2023-12-22T05:24:41;18.10;;;8.18;;
74543;SDS011;63016;55.030;38.710;2023-12-22T05:27:07;17.13;;;8.27;;
74543;SDS011;63016;55.030;38.710;2023-12-22T05:29:33;16.42;;;7.55;;
74543;SDS011;63016;55.030;38.710;2023-12-22T05:31:58;18.70;;;7.80;;
74543;SDS011;63016;55.030;38.710;2023-12-22T05:34:24;17.00;;;7.57;;
74543;SDS011;63016;55.030;38.710;2023-12-22T05:36:50;16.17;;;7.40;;
74543;SDS011;63016;55.030;38.710;2023-12-22T05:39:15;17.63;;;7.13;;
74543;SDS011;63016;55.030;38.710;2023-12-22T05:41:41;16.77;;;7.55;;
74543;SDS011;63016;55.030;38.710;2023-12-22T05:44:06;16.88;;;7.47;;
74543;SDS011;63016;55.030;38.710;2023-12-22T05:46:38;17.48;;;8.05;;
74543;SDS011;63016;55.030;38.710;2023-12-22T05:49:04;16.20;;;7.45;;
74543;SDS011;63016;55.030;38.710;2023-12-22T05:51:35;15.20;;;7.28;;
74543;SDS011;63016;55.030;38.710;2023-12-22T05:54:02;12.77;;;6.88;;
74543;SDS011;63016;55.030;38.710;2023-12-22T05:56:27;17.80;;;7.43;;
74543;SDS011;63016;55.030;38.710;2023-12-22T05:58:53;15.52;;;7.15;;
74543;SDS011;63016;55.030;38.710;2023-12-22T06:01:18;15.10;;;7.10;;
74543;SDS011;63016;55.030;38.710;2023-12-22T06:03:44;12.45;;;6.75;;
74543;SDS011;63016;55.030;38.710;2023-12-22T06:06:11;13.48;;;6.20;;
74543;SDS011;63016;55.030;38.710;2023-12-22T06:08:37;15.20;;;7.38;;
74543;SDS011;63016;55.030;38.710;2023-12-22T06:11:03;15.57;;;7.97;;
74543;SDS011;63016;55.030;38.710;2023-12-22T06:13:29;15.98;;;7.00;;
74543;SDS011;63016;55.030;38.710;2023-12-22T06:15:54;13.63;;;7.18;;
74543;SDS011;63016;55.030;38.710;2023-12-22T06:18:20;15.45;;;6.60;;
74543;SDS011;63016;55.030;38.710;2023-12-22T06:20:45;14.73;;;6.80;;
74543;SDS011;63016;55.030;38.710;2023-12-22T06:23:11;17.08;;;6.60;;
74543;SDS011;63016;55.030;38.710;2023-12-22T06:25:36;15.00;;;7.28;;
74543;SDS011;63016;55.030;38.710;2023-12-22T06:28:02;12.93;;;6.45;;
74543;SDS011;63016;55.030;38.710;2023-12-22T06:30:28;14.68;;;6.78;;
74543;SDS011;63016;55.030;38.710;2023-12-22T06:32:53;14.57;;;6.10;;
74543;SDS011;63016;55.030;38.710;2023-12-22T06:35:19;13.40;;;6.68;;
74543;SDS011;63016;55.030;38.710;2023-12-22T06:37:49;12.70;;;6.38;;
74543;SDS011;63016;55.030;38.710;2023-12-22T06:40:15;13.40;;;6.10;;
74543;SDS011;63016;55.030;38.710;2023-12-22T06:42:40;11.93;;;6.22;;
74543;SDS011;63016;55.030;38.710;2023-12-22T06:45:06;12.35;;;6.13;;
74543;SDS011;63016;55.030;38.710;2023-12-22T06:47:32;11.05;;;6.05;;
74543;SDS011;63016;55.030;38.710;2023-12-22T06:49:58;14.02;;;6.35;;
74543;SDS011;63016;55.030;38.710;2023-12-22T06:52:24;12.45;;;6.20;;
74543;SDS011;63016;55.030;38.710;2023-12-22T06:54:49;12.68;;;6.95;;
74543;SDS011;63016;55.030;38.710;2023-12-22T06:57:14;13.55;;;6.25;;
74543;SDS011;63016;55.030;38.710;2023-12-22T06:59:41;13.40;;;6.60;;
74543;SDS011;63016;55.030;38.710;2023-12-22T07:02:07;13.35;;;6.40;;
74543;SDS011;63016;55.030;38.710;2023-12-22T07:07:46;13.57;;;6.18;;
74543;SDS011;63016;55.030;38.710;2023-12-22T07:10:11;13.45;;;6.20;;
74543;SDS011;63016;55.030;38.710;2023-12-22T07:12:37;13.45;;;6.43;;
74543;SDS011;63016;55.030;38.710;2023-12-22T07:15:04;13.18;;;6.05;;
74543;SDS011;63016;55.030;38.710;2023-12-22T07:17:32;12.40;;;6.22;;
74543;SDS011;63016;55.030;38.710;2023-12-22T07:19:57;14.55;;;5.78;;
74543;SDS011;63016;55.030;38.710;2023-12-22T07:22:23;14.02;;;6.00;;
74543;SDS011;63016;55.030;38.710;2023-12-22T07:24:49;11.43;;;5.65;;
74543;SDS011;63016;55.030;38.710;2023-12-22T07:27:16;11.77;;;6.15;;
74543;SDS011;63016;55.030;38.710;2023-12-22T07:29:42;12.90;;;6.53;;
74543;SDS011;63016;55.030;38.710;2023-12-22T07:32:07;15.70;;;6.90;;
74543;SDS011;63016;55.030;38.710;2023-12-22T07:34:33;13.85;;;6.50;;
74543;SDS011;63016;55.030;38.710;2023-12-22T07:36:58;13.75;;;6.35;;
74543;SDS011;63016;55.030;38.710;2023-12-22T07:39:24;13.00;;;6.60;;
74543;SDS011;63016;55.030;38.710;2023-12-22T07:41:49;11.75;;;5.65;;
74543;SDS011;63016;55.030;38.710;2023-12-22T07:44:15;17.52;;;6.45;;
74543;SDS011;63016;55.030;38.710;2023-12-22T07:46:40;12.02;;;5.65;;
74543;SDS011;63016;55.030;38.710;2023-12-22T07:49:06;11.43;;;5.85;;
74543;SDS011;63016;55.030;38.710;2023-12-22T07:51:31;13.23;;;6.10;;
74543;SDS011;63016;55.030;38.710;2023-12-22T07:53:58;12.23;;;5.70;;
74543;SDS011;63016;55.030;38.710;2023-12-22T07:56:23;10.95;;;5.57;;
74543;SDS011;63016;55.030;38.710;2023-12-22T07:58:49;11.75;;;5.47;;
74543;SDS011;63016;55.030;38.710;2023-12-22T08:01:14;10.45;;;5.35;;
74543;SDS011;63016;55.030;38.710;2023-12-22T08:03:40;13.30;;;5.78;;
74543;SDS011;63016;55.030;38.710;2023-12-22T08:06:06;11.27;;;5.22;;
74543;SDS011;63016;55.030;38.710;2023-12-22T08:08:31;10.05;;;5.50;;
74543;SDS011;63016;55.030;38.710;2023-12-22T08:10:58;12.52;;;5.40;;
74543;SDS011;63016;55.030;38.710;2023-12-22T08:13:24;9.70;;;5.22;;
74543;SDS011;63016;55.030;38.710;2023-12-22T08:15:50;14.13;;;5.03;;
74543;SDS011;63016;55.030;38.710;2023-12-22T08:18:15;10.20;;;5.32;;
74543;SDS011;63016;55.030;38.710;2023-12-22T08:20:41;11.60;;;5.03;;
74543;SDS011;63016;55.030;38.710;2023-12-22T08:23:06;11.32;;;5.30;;
74543;SDS011;63016;55.030;38.710;2023-12-22T08:25:32;10.48;;;4.50;;
74543;SDS011;63016;55.030;38.710;2023-12-22T08:27:57;10.63;;;4.85;;
74543;SDS011;63016;55.030;38.710;2023-12-22T08:30:23;10.65;;;5.05;;
74543;SDS011;63016;55.030;38.710;2023-12-22T08:32:49;10.50;;;4.55;;
74543;SDS011;63016;55.030;38.710;2023-12-22T08:35:15;9.73;;;4.35;;
74543;SDS011;63016;55.030;38.710;2023-12-22T08:37:41;10.50;;;5.05;;
74543;SDS011;63016;55.030;38.710;2023-12-22T08:40:07;12.02;;;4.85;;
74543;SDS011;63016;55.030;38.710;2023-12-22T08:42:33;13.60;;;4.95;;
74543;SDS011;63016;55.030;38.710;2023-12-22T08:44:59;12.80;;;5.57;;
74543;SDS011;63016;55.030;38.710;2023-12-22T08:47:24;15.07;;;4.80;;
74543;SDS011;63016;55.030;38.710;2023-12-22T08:49:50;11.05;;;5.32;;
74543;SDS011;63016;55.030;38.710;2023-12-22T08:52:16;15.38;;;5.30;;
74543;SDS011;63016;55.030;38.710;2023-12-22T08:54:41;11.95;;;5.72;;
74543;SDS011;63016;55.030;38.710;2023-12-22T08:57:07;12.80;;;5.03;;
74543;SDS011;63016;55.030;38.710;2023-12-22T08:59:34;11.65;;;5.15;;
74543;SDS011;63016;55.030;38.710;2023-12-22T09:01:59;14.65;;;5.57;;
74543;SDS011;63016;55.030;38.710;2023-12-22T09:04:25;10.93;;;5.10;;
74543;SDS011;63016;55.030;38.710;2023-12-22T09:06:50;11.23;;;5.47;;
74543;SDS011;63016;55.030;38.710;2023-12-22T09:09:16;10.77;;;5.40;;
74543;SDS011;63016;55.030;38.710;2023-12-22T09:11:41;12.57;;;5.68;;
74543;SDS011;63016;55.030;38.710;2023-12-22T09:14:07;10.35;;;5.07;;
74543;SDS011;63016;55.030;38.710;2023-12-22T09:16:38;9.75;;;5.13;;
74543;SDS011;63016;55.030;38.710;2023-12-22T09:19:04;13.68;;;5.55;;
74543;SDS011;63016;55.030;38.710;2023-12-22T09:21:30;15.88;;;5.97;;
74543;SDS011;63016;55.030;38.710;2023-12-22T09:23:55;14.13;;;5.75;;
74543;SDS011;63016;55.030;38.710;2023-12-22T09:26:21;10.90;;;4.93;;
74543;SDS011;63016;55.030;38.710;2023-12-22T09:28:46;11.82;;;4.63;;
74543;SDS011;63016;55.030;38.710;2023-12-22T09:31:12;13.63;;;5.40;;
74543;SDS011;63016;55.030;38.710;2023-12-22T09:33:38;14.38;;;4.97;;
74543;SDS011;63016;55.030;38.710;2023-12-22T09:36:05;12.50;;;4.80;;
74543;SDS011;63016;55.030;38.710;2023-12-22T09:38:31;14.73;;;5.63;;
74543;SDS011;63016;55.030;38.710;2023-12-22T09:40:56;12.35;;;5.13;;
74543;SDS011;63016;55.030;38.710;2023-12-22T09:43:22;13.75;;;5.78;;
74543;SDS011;63016;55.030;38.710;2023-12-22T09:45:49;10.80;;;4.93;;
74543;SDS011;63016;55.030;38.710;2023-12-22T09:48:15;10.82;;;4.65;;
74543;SDS011;63016;55.030;38.710;2023-12-22T09:50:43;13.43;;;5.03;;
74543;SDS011;63016;55.030;38.710;2023-12-22T09:53:10;10.63;;;4.90;;
74543;SDS011;63016;55.030;38.710;2023-12-22T09:55:38;12.07;;;4.65;;
74543;SDS011;63016;55.030;38.710;2023-12-22T09:58:07;15.55;;;5.32;;
74543;SDS011;63016;55.030;38.710;2023-12-22T10:00:35;11.35;;;5.68;;
74543;SDS011;63016;55.030;38.710;2023-12-22T10:03:02;11.43;;;5.32;;
74543;SDS011;63016;55.030;38.710;2023-12-22T10:05:31;12.05;;;5.38;;
74543;SDS011;63016;55.030;38.710;2023-12-22T10:07:57;11.63;;;5.40;;
74543;SDS011;63016;55.030;38.710;2023-12-22T10:10:26;11.73;;;5.18;;
74543;SDS011;63016;55.030;38.710;2023-12-22T10:12:57;12.27;;;5.40;;
74543;SDS011;63016;55.030;38.710;2023-12-22T10:15:24;14.77;;;5.70;;
74543;SDS011;63016;55.030;38.710;2023-12-22T10:17:51;14.15;;;5.28;;
74543;SDS011;63016;55.030;38.710;2023-12-22T10:20:17;10.93;;;4.90;;
74543;SDS011;63016;55.030;38.710;2023-12-22T10:22:43;13.48;;;5.43;;
74543;SDS011;63016;55.030;38.710;2023-12-22T10:25:08;17.27;;;6.47;;
74543;SDS011;63016;55.030;38.710;2023-12-22T10:27:37;13.52;;;5.40;;
74543;SDS011;63016;55.030;38.710;2023-12-22T10:30:03;11.13;;;4.78;;
74543;SDS011;63016;55.030;38.710;2023-12-22T10:32:29;14.05;;;5.35;;
74543;SDS011;63016;55.030;38.710;2023-12-22T10:34:55;11.48;;;4.78;;
74543;SDS011;63016;55.030;38.710;2023-12-22T10:37:22;14.75;;;6.32;;
74543;SDS011;63016;55.030;38.710;2023-12-22T10:39:51;13.50;;;6.47;;
74543;SDS011;63016;55.030;38.710;2023-12-22T10:42:20;14.38;;;5.60;;
74543;SDS011;63016;55.030;38.710;2023-12-22T10:44:46;13.90;;;5.80;;
74543;SDS011;63016;55.030;38.710;2023-12-22T10:47:13;14.60;;;5.85;;
74543;SDS011;63016;55.030;38.710;2023-12-22T10:49:38;16.92;;;5.70;;
74543;SDS011;63016;55.030;38.710;2023-12-22T10:52:04;13.48;;;5.80;;
74543;SDS011;63016;55.030;38.710;2023-12-22T10:54:30;12.70;;;5.57;;
74543;SDS011;63016;55.030;38.710;2023-12-22T10:56:59;11.93;;;5.28;;
74543;SDS011;63016;55.030;38.710;2023-12-22T10:59:27;14.68;;;5.10;;
74543;SDS011;63016;55.030;38.710;2023-12-22T11:01:54;13.95;;;6.32;;
74543;SDS011;63016;55.030;38.710;2023-12-22T11:04:22;14.68;;;5.72;;
74543;SDS011;63016;55.030;38.710;2023-12-22T11:06:59;14.68;;;6.07;;
74543;SDS011;63016;55.030;38.710;2023-12-22T11:09:28;11.48;;;5.60;;
74543;SDS011;63016;55.030;38.710;2023-12-22T11:11:57;12.77;;;5.32;;
74543;SDS011;63016;55.030;38.710;2023-12-22T11:14:23;14.65;;;5.97;;
74543;SDS011;63016;55.030;38.710;2023-12-22T11:16:51;16.42;;;6.38;;
74543;SDS011;63016;55.030;38.710;2023-12-22T11:19:20;15.95;;;6.07;;
74543;SDS011;63016;55.030;38.710;2023-12-22T11:21:48;13.35;;;5.53;;
74543;SDS011;63016;55.030;38.710;2023-12-22T11:24:16;13.73;;;5.90;;
74543;SDS011;63016;55.030;38.710;2023-12-22T11:26:43;15.68;;;6.00;;
74543;SDS011;63016;55.030;38.710;2023-12-22T11:29:12;13.15;;;5.53;;
74543;SDS011;63016;55.030;38.710;2023-12-22T11:31:39;13.85;;;5.68;;
74543;SDS011;63016;55.030;38.710;2023-12-22T11:34:06;12.45;;;5.25;;
74543;SDS011;63016;55.030;38.710;2023-12-22T11:36:32;12.13;;;5.60;;
74543;SDS011;63016;55.030;38.710;2023-12-22T11:38:59;14.48;;;6.20;;
74543;SDS011;63016;55.030;38.710;2023-12-22T11:41:25;13.07;;;5.68;;
74543;SDS011;63016;55.030;38.710;2023-12-22T11:43:55;12.82;;;5.00;;
74543;SDS011;63016;55.030;38.710;2023-12-22T11:46:23;12.52;;;5.82;;
74543;SDS011;63016;55.030;38.710;2023-12-22T11:48:49;11.93;;;5.45;;
74543;SDS011;63016;55.030;38.710;2023-12-22T11:51:16;14.43;;;5.85;;
74543;SDS011;63016;55.030;38.710;2023-12-22T11:53:43;14.35;;;5.55;;
74543;SDS011;63016;55.030;38.710;2023-12-22T11:56:09;13.82;;;5.60;;
74543;SDS011;63016;55.030;38.710;2023-12-22T11:58:43;15.40;;;6.18;;
74543;SDS011;63016;55.030;38.710;2023-12-22T12:01:20;13.20;;;5.10;;
74543;SDS011;63016;55.030;38.710;2023-12-22T12:03:48;13.10;;;5.43;;
74543;SDS011;63016;55.030;38.710;2023-12-22T12:06:30;12.73;;;5.25;;
74543;SDS011;63016;55.030;38.710;2023-12-22T12:08:58;11.77;;;5.28;;
74543;SDS011;63016;55.030;38.710;2023-12-22T12:14:16;13.00;;;5.25;;
74543;SDS011;63016;55.030;38.710;2023-12-22T12:16:48;13.67;;;5.23;;
74543;SDS011;63016;55.030;38.710;2023-12-22T12:19:13;17.30;;;5.90;;
74543;SDS011;63016;55.030;38.710;2023-12-22T12:21:40;17.02;;;5.97;;
74543;SDS011;63016;55.030;38.710;2023-12-22T12:24:05;16.13;;;5.95;;
74543;SDS011;63016;55.030;38.710;2023-12-22T12:26:32;13.57;;;6.07;;
74543;SDS011;63016;55.030;38.710;2023-12-22T12:28:59;16.80;;;6.70;;
74543;SDS011;63016;55.030;38.710;2023-12-22T12:31:36;13.95;;;6.28;;
74543;SDS011;63016;55.030;38.710;2023-12-22T12:34:04;16.67;;;6.25;;
74543;SDS011;63016;55.030;38.710;2023-12-22T12:36:30;18.00;;;6.10;;
74543;SDS011;63016;55.030;38.710;2023-12-22T12:39:06;15.77;;;5.85;;
74543;SDS011;63016;55.030;38.710;2023-12-22T12:41:35;14.77;;;6.22;;
74543;SDS011;63016;55.030;38.710;2023-12-22T12:44:06;18.85;;;6.97;;
74543;SDS011;63016;55.030;38.710;2023-12-22T12:46:34;17.95;;;6.65;;
74543;SDS011;63016;55.030;38.710;2023-12-22T12:49:07;18.92;;;6.43;;
74543;SDS011;63016;55.030;38.710;2023-12-22T12:51:40;17.85;;;7.82;;
74543;SDS011;63016;55.030;38.710;2023-12-22T12:54:10;16.30;;;6.65;;
74543;SDS011;63016;55.030;38.710;2023-12-22T12:56:43;19.35;;;6.80;;
74543;SDS011;63016;55.030;38.710;2023-12-22T12:59:10;16.27;;;7.30;;
74543;SDS011;63016;55.030;38.710;2023-12-22T13:01:40;17.40;;;6.65;;
74543;SDS011;63016;55.030;38.710;2023-12-22T13:04:07;16.80;;;6.60;;
74543;SDS011;63016;55.030;38.710;2023-12-22T13:06:33;19.85;;;7.88;;
74543;SDS011;63016;55.030;38.710;2023-12-22T13:08:58;16.75;;;6.18;;
74543;SDS011;63016;55.030;38.710;2023-12-22T13:11:28;15.35;;;6.63;;
74543;SDS011;63016;55.030;38.710;2023-12-22T13:13:56;16.77;;;6.60;;
74543;SDS011;63016;55.030;38.710;2023-12-22T13:16:23;15.98;;;6.80;;
74543;SDS011;63016;55.030;38.710;2023-12-22T13:21:20;14.38;;;5.88;;
74543;SDS011;63016;55.030;38.710;2023-12-22T13:23:46;17.23;;;7.38;;
74543;SDS011;63016;55.030;38.710;2023-12-22T13:26:18;15.45;;;6.72;;
74543;SDS011;63016;55.030;38.710;2023-12-22T13:28:44;18.00;;;7.28;;
74543;SDS011;63016;55.030;38.710;2023-12-22T13:31:10;18.35;;;6.85;;
74543;SDS011;63016;55.030;38.710;2023-12-22T13:33:39;17.25;;;6.95;;
74543;SDS011;63016;55.030;38.710;2023-12-22T13:36:05;18.48;;;7.88;;
74543;SDS011;63016;55.030;38.710;2023-12-22T13:38:31;20.58;;;7.80;;
74543;SDS011;63016;55.030;38.710;2023-12-22T13:40:59;17.92;;;7.85;;
74543;SDS011;63016;55.030;38.710;2023-12-22T13:43:29;18.83;;;7.93;;
74543;SDS011;63016;55.030;38.710;2023-12-22T13:45:55;18.98;;;7.53;;
74543;SDS011;63016;55.030;38.710;2023-12-22T13:48:21;20.02;;;8.63;;
74543;SDS011;63016;55.030;38.710;2023-12-22T13:50:57;19.27;;;7.68;;
74543;SDS011;63016;55.030;38.710;2023-12-22T13:53:24;17.55;;;8.13;;
74543;SDS011;63016;55.030;38.710;2023-12-22T13:55:56;18.25;;;8.30;;
74543;SDS011;63016;55.030;38.710;2023-12-22T13:58:22;19.48;;;8.20;;
74543;SDS011;63016;55.030;38.710;2023-12-22T14:00:48;20.33;;;7.78;;
74543;SDS011;63016;55.030;38.710;2023-12-22T14:03:14;19.55;;;8.20;;
74543;SDS011;63016;55.030;38.710;2023-12-22T14:05:43;17.63;;;7.55;;
74543;SDS011;63016;55.030;38.710;2023-12-22T14:08:09;17.13;;;7.97;;
74543;SDS011;63016;55.030;38.710;2023-12-22T14:10:34;18.27;;;7.82;;
74543;SDS011;63016;55.030;38.710;2023-12-22T14:13:00;19.77;;;8.05;;
74543;SDS011;63016;55.030;38.710;2023-12-22T14:15:25;18.48;;;7.60;;
74543;SDS011;63016;55.030;38.710;2023-12-22T14:17:54;23.25;;;8.48;;
74543;SDS011;63016;55.030;38.710;2023-12-22T14:20:20;19.50;;;7.38;;
74543;SDS011;63016;55.030;38.710;2023-12-22T14:22:46;19.42;;;8.45;;
74543;SDS011;63016;55.030;38.710;2023-12-22T14:25:11;18.45;;;8.38;;
74543;SDS011;63016;55.030;38.710;2023-12-22T14:27:37;21.67;;;8.57;;
74543;SDS011;63016;55.030;38.710;2023-12-22T14:30:02;22.67;;;8.60;;